sensor_id;sensor_type;location;lat;lon;timestamp;temperature;humidity
66057;DHT22;52842;52.666;5.202;2022-08-20T00:01:06;23.00;74.90
66057;DHT22;52842;52.666;5.202;2022-08-20T00:03:34;23.00;74.80
66057;DHT22;52842;52.666;5.202;2022-08-20T00:06:03;23.00;74.80
66057;DHT22;52842;52.666;5.202;2022-08-20T00:08:30;23.00;74.80
66057;DHT22;52842;52.666;5.202;2022-08-20T00:10:57;22.90;74.70
66057;DHT22;52842;52.666;5.202;2022-08-20T00:13:25;22.90;74.70
66057;DHT22;52842;52.666;5.202;2022-08-20T00:15:54;22.90;74.80
66057;DHT22;52842;52.666;5.202;2022-08-20T00:18:21;22.90;74.70
66057;DHT22;52842;52.666;5.202;2022-08-20T00:20:49;22.90;74.70
66057;DHT22;52842;52.666;5.202;2022-08-20T00:23:17;22.90;74.60
66057;DHT22;52842;52.666;5.202;2022-08-20T00:25:44;22.90;74.60
66057;DHT22;52842;52.666;5.202;2022-08-20T00:28:11;22.90;74.50
66057;DHT22;52842;52.666;5.202;2022-08-20T00:30:38;22.90;74.40
66057;DHT22;52842;52.666;5.202;2022-08-20T00:33:07;22.90;74.30
66057;DHT22;52842;52.666;5.202;2022-08-20T00:35:35;22.90;74.20
66057;DHT22;52842;52.666;5.202;2022-08-20T00:38:02;22.90;74.10
66057;DHT22;52842;52.666;5.202;2022-08-20T00:40:31;22.80;73.80
66057;DHT22;52842;52.666;5.202;2022-08-20T00:42:59;22.80;73.60
66057;DHT22;52842;52.666;5.202;2022-08-20T00:45:27;22.80;73.40
66057;DHT22;52842;52.666;5.202;2022-08-20T00:47:54;22.80;73.10
66057;DHT22;52842;52.666;5.202;2022-08-20T00:50:23;22.80;72.90
66057;DHT22;52842;52.666;5.202;2022-08-20T00:52:50;22.80;72.70
66057;DHT22;52842;52.666;5.202;2022-08-20T00:55:18;22.70;72.50
66057;DHT22;52842;52.666;5.202;2022-08-20T00:57:46;22.70;72.30
66057;DHT22;52842;52.666;5.202;2022-08-20T01:00:15;22.70;72.20
66057;DHT22;52842;52.666;5.202;2022-08-20T01:02:42;22.70;72.20
66057;DHT22;52842;52.666;5.202;2022-08-20T01:05:10;22.70;72.30
66057;DHT22;52842;52.666;5.202;2022-08-20T01:07:41;22.70;72.40
66057;DHT22;52842;52.666;5.202;2022-08-20T01:10:11;22.70;72.40
66057;DHT22;52842;52.666;5.202;2022-08-20T01:12:39;22.70;72.40
66057;DHT22;52842;52.666;5.202;2022-08-20T01:15:08;22.70;72.50
66057;DHT22;52842;52.666;5.202;2022-08-20T01:17:38;22.70;72.60
66057;DHT22;52842;52.666;5.202;2022-08-20T01:20:09;22.70;72.60
66057;DHT22;52842;52.666;5.202;2022-08-20T01:22:37;22.70;72.70
66057;DHT22;52842;52.666;5.202;2022-08-20T01:28:00;22.70;72.80
66057;DHT22;52842;52.666;5.202;2022-08-20T01:30:26;22.70;72.80
66057;DHT22;52842;52.666;5.202;2022-08-20T01:32:54;22.70;72.80
66057;DHT22;52842;52.666;5.202;2022-08-20T01:35:21;22.70;72.90
66057;DHT22;52842;52.666;5.202;2022-08-20T01:37:48;22.70;73.00
66057;DHT22;52842;52.666;5.202;2022-08-20T01:40:16;22.70;73.00
66057;DHT22;52842;52.666;5.202;2022-08-20T01:42:45;22.70;73.00
66057;DHT22;52842;52.666;5.202;2022-08-20T01:45:15;22.70;73.00
66057;DHT22;52842;52.666;5.202;2022-08-20T01:47:41;22.70;73.00
66057;DHT22;52842;52.666;5.202;2022-08-20T01:50:09;22.70;73.10
66057;DHT22;52842;52.666;5.202;2022-08-20T01:52:42;22.70;73.10
66057;DHT22;52842;52.666;5.202;2022-08-20T01:55:12;22.70;73.10
66057;DHT22;52842;52.666;5.202;2022-08-20T01:57:39;22.70;73.20
66057;DHT22;52842;52.666;5.202;2022-08-20T02:00:07;22.70;73.20
66057;DHT22;52842;52.666;5.202;2022-08-20T02:02:35;22.70;73.20
66057;DHT22;52842;52.666;5.202;2022-08-20T02:05:02;22.70;73.30
66057;DHT22;52842;52.666;5.202;2022-08-20T02:07:29;22.70;73.30
66057;DHT22;52842;52.666;5.202;2022-08-20T02:09:56;22.70;73.30
66057;DHT22;52842;52.666;5.202;2022-08-20T02:12:23;22.70;73.30
66057;DHT22;52842;52.666;5.202;2022-08-20T02:14:51;22.70;73.30
66057;DHT22;52842;52.666;5.202;2022-08-20T02:17:18;22.70;73.20
66057;DHT22;52842;52.666;5.202;2022-08-20T02:19:49;22.70;73.10
66057;DHT22;52842;52.666;5.202;2022-08-20T02:22:17;22.60;73.10
66057;DHT22;52842;52.666;5.202;2022-08-20T02:24:45;22.60;73.00
66057;DHT22;52842;52.666;5.202;2022-08-20T02:27:12;22.60;73.00
66057;DHT22;52842;52.666;5.202;2022-08-20T02:29:39;22.60;72.90
66057;DHT22;52842;52.666;5.202;2022-08-20T02:32:07;22.60;72.90
66057;DHT22;52842;52.666;5.202;2022-08-20T02:34:34;22.60;72.90
66057;DHT22;52842;52.666;5.202;2022-08-20T02:37:03;22.60;73.00
66057;DHT22;52842;52.666;5.202;2022-08-20T02:39:29;22.60;72.90
66057;DHT22;52842;52.666;5.202;2022-08-20T02:41:56;22.60;72.90
66057;DHT22;52842;52.666;5.202;2022-08-20T02:44:23;22.60;72.90
66057;DHT22;52842;52.666;5.202;2022-08-20T02:46:49;22.60;72.80
66057;DHT22;52842;52.666;5.202;2022-08-20T02:49:16;22.60;72.80
66057;DHT22;52842;52.666;5.202;2022-08-20T02:51:43;22.60;72.70
66057;DHT22;52842;52.666;5.202;2022-08-20T02:54:12;22.60;72.60
66057;DHT22;52842;52.666;5.202;2022-08-20T02:56:39;22.50;72.50
66057;DHT22;52842;52.666;5.202;2022-08-20T02:59:06;22.60;72.60
66057;DHT22;52842;52.666;5.202;2022-08-20T03:01:33;22.50;72.60
66057;DHT22;52842;52.666;5.202;2022-08-20T03:04:00;22.50;72.60
66057;DHT22;52842;52.666;5.202;2022-08-20T03:06:27;22.50;72.60
66057;DHT22;52842;52.666;5.202;2022-08-20T03:08:54;22.50;72.60
66057;DHT22;52842;52.666;5.202;2022-08-20T03:11:23;22.50;72.60
66057;DHT22;52842;52.666;5.202;2022-08-20T03:13:49;22.50;72.60
66057;DHT22;52842;52.666;5.202;2022-08-20T03:16:16;22.50;72.60
66057;DHT22;52842;52.666;5.202;2022-08-20T03:18:44;22.50;72.60
66057;DHT22;52842;52.666;5.202;2022-08-20T03:21:11;22.50;72.60
66057;DHT22;52842;52.666;5.202;2022-08-20T03:23:38;22.50;72.50
66057;DHT22;52842;52.666;5.202;2022-08-20T03:26:06;22.50;72.60
66057;DHT22;52842;52.666;5.202;2022-08-20T03:28:34;22.50;72.60
66057;DHT22;52842;52.666;5.202;2022-08-20T03:31:01;22.50;72.60
66057;DHT22;52842;52.666;5.202;2022-08-20T03:33:28;22.50;72.70
66057;DHT22;52842;52.666;5.202;2022-08-20T03:35:55;22.50;72.70
66057;DHT22;52842;52.666;5.202;2022-08-20T03:38:22;22.40;72.60
66057;DHT22;52842;52.666;5.202;2022-08-20T03:40:49;22.40;72.60
66057;DHT22;52842;52.666;5.202;2022-08-20T03:43:16;22.40;72.60
66057;DHT22;52842;52.666;5.202;2022-08-20T03:45:44;22.40;72.70
66057;DHT22;52842;52.666;5.202;2022-08-20T03:48:12;22.40;72.70
66057;DHT22;52842;52.666;5.202;2022-08-20T03:50:40;22.40;72.70
66057;DHT22;52842;52.666;5.202;2022-08-20T03:53:07;22.40;72.70
66057;DHT22;52842;52.666;5.202;2022-08-20T03:55:34;22.40;72.70
66057;DHT22;52842;52.666;5.202;2022-08-20T03:58:02;22.40;72.70
66057;DHT22;52842;52.666;5.202;2022-08-20T04:00:31;22.40;72.70
66057;DHT22;52842;52.666;5.202;2022-08-20T04:02:59;22.40;72.70
66057;DHT22;52842;52.666;5.202;2022-08-20T04:05:29;22.40;72.70
66057;DHT22;52842;52.666;5.202;2022-08-20T04:07:57;22.40;72.70
66057;DHT22;52842;52.666;5.202;2022-08-20T04:10:24;22.40;72.80
66057;DHT22;52842;52.666;5.202;2022-08-20T04:12:51;22.40;72.80
66057;DHT22;52842;52.666;5.202;2022-08-20T04:15:18;22.40;72.70
66057;DHT22;52842;52.666;5.202;2022-08-20T04:17:46;22.40;72.70
66057;DHT22;52842;52.666;5.202;2022-08-20T04:20:16;22.30;72.70
66057;DHT22;52842;52.666;5.202;2022-08-20T04:22:46;22.30;72.70
66057;DHT22;52842;52.666;5.202;2022-08-20T04:25:13;22.30;72.70
66057;DHT22;52842;52.666;5.202;2022-08-20T04:27:40;22.30;72.70
66057;DHT22;52842;52.666;5.202;2022-08-20T04:30:07;22.30;72.70
66057;DHT22;52842;52.666;5.202;2022-08-20T04:32:35;22.30;72.80
66057;DHT22;52842;52.666;5.202;2022-08-20T04:35:02;22.30;72.70
66057;DHT22;52842;52.666;5.202;2022-08-20T04:37:33;22.30;72.70
66057;DHT22;52842;52.666;5.202;2022-08-20T04:40:02;22.30;72.70
66057;DHT22;52842;52.666;5.202;2022-08-20T04:42:46;22.30;73.50
66057;DHT22;52842;52.666;5.202;2022-08-20T04:45:13;22.30;72.70
66057;DHT22;52842;52.666;5.202;2022-08-20T04:47:39;22.30;72.70
66057;DHT22;52842;52.666;5.202;2022-08-20T04:50:07;22.30;72.70
66057;DHT22;52842;52.666;5.202;2022-08-20T04:52:35;22.30;72.70
66057;DHT22;52842;52.666;5.202;2022-08-20T04:55:02;22.30;72.70
66057;DHT22;52842;52.666;5.202;2022-08-20T04:57:29;22.20;72.70
66057;DHT22;52842;52.666;5.202;2022-08-20T04:59:56;22.20;72.60
66057;DHT22;52842;52.666;5.202;2022-08-20T05:02:23;22.20;72.60
66057;DHT22;52842;52.666;5.202;2022-08-20T05:04:49;22.20;72.60
66057;DHT22;52842;52.666;5.202;2022-08-20T05:07:16;22.20;72.60
66057;DHT22;52842;52.666;5.202;2022-08-20T05:09:45;22.20;72.60
66057;DHT22;52842;52.666;5.202;2022-08-20T05:12:13;22.20;72.60
66057;DHT22;52842;52.666;5.202;2022-08-20T05:14:42;22.20;72.60
66057;DHT22;52842;52.666;5.202;2022-08-20T05:17:09;22.20;72.60
66057;DHT22;52842;52.666;5.202;2022-08-20T05:19:39;22.20;72.60
66057;DHT22;52842;52.666;5.202;2022-08-20T05:22:06;22.20;72.60
66057;DHT22;52842;52.666;5.202;2022-08-20T05:24:33;22.20;72.50
66057;DHT22;52842;52.666;5.202;2022-08-20T05:27:01;22.20;72.50
66057;DHT22;52842;52.666;5.202;2022-08-20T05:29:28;22.20;72.60
66057;DHT22;52842;52.666;5.202;2022-08-20T05:31:54;22.10;72.50
66057;DHT22;52842;52.666;5.202;2022-08-20T05:34:21;22.10;72.40
66057;DHT22;52842;52.666;5.202;2022-08-20T05:36:49;22.10;72.50
66057;DHT22;52842;52.666;5.202;2022-08-20T05:39:16;22.10;72.50
66057;DHT22;52842;52.666;5.202;2022-08-20T05:41:43;22.10;72.60
66057;DHT22;52842;52.666;5.202;2022-08-20T05:44:11;22.10;72.60
66057;DHT22;52842;52.666;5.202;2022-08-20T05:46:39;22.10;72.70
66057;DHT22;52842;52.666;5.202;2022-08-20T05:49:07;22.10;72.70
66057;DHT22;52842;52.666;5.202;2022-08-20T05:51:33;22.10;72.70
66057;DHT22;52842;52.666;5.202;2022-08-20T05:54:01;22.10;72.70
66057;DHT22;52842;52.666;5.202;2022-08-20T05:56:29;22.10;72.80
66057;DHT22;52842;52.666;5.202;2022-08-20T05:58:56;22.10;72.80
66057;DHT22;52842;52.666;5.202;2022-08-20T06:01:24;22.10;72.90
66057;DHT22;52842;52.666;5.202;2022-08-20T06:03:51;22.20;73.00
66057;DHT22;52842;52.666;5.202;2022-08-20T06:06:35;22.10;73.10
66057;DHT22;52842;52.666;5.202;2022-08-20T06:09:02;22.20;73.10
66057;DHT22;52842;52.666;5.202;2022-08-20T06:11:28;22.20;73.10
66057;DHT22;52842;52.666;5.202;2022-08-20T06:13:55;22.20;73.10
66057;DHT22;52842;52.666;5.202;2022-08-20T06:16:22;22.20;73.20
66057;DHT22;52842;52.666;5.202;2022-08-20T06:18:50;22.20;73.10
66057;DHT22;52842;52.666;5.202;2022-08-20T06:21:17;22.10;73.10
66057;DHT22;52842;52.666;5.202;2022-08-20T06:23:43;22.20;73.10
66057;DHT22;52842;52.666;5.202;2022-08-20T06:26:10;22.20;73.10
66057;DHT22;52842;52.666;5.202;2022-08-20T06:28:37;22.20;73.10
66057;DHT22;52842;52.666;5.202;2022-08-20T06:31:03;22.10;72.90
66057;DHT22;52842;52.666;5.202;2022-08-20T06:33:30;22.10;72.80
66057;DHT22;52842;52.666;5.202;2022-08-20T06:35:58;22.10;72.80
66057;DHT22;52842;52.666;5.202;2022-08-20T06:38:25;22.10;72.60
66057;DHT22;52842;52.666;5.202;2022-08-20T06:40:51;22.10;72.60
66057;DHT22;52842;52.666;5.202;2022-08-20T06:43:18;22.10;72.70
66057;DHT22;52842;52.666;5.202;2022-08-20T06:45:44;22.10;72.60
66057;DHT22;52842;52.666;5.202;2022-08-20T06:48:12;22.10;72.50
66057;DHT22;52842;52.666;5.202;2022-08-20T06:50:40;22.10;73.20
66057;DHT22;52842;52.666;5.202;2022-08-20T06:53:09;22.10;72.40
66057;DHT22;52842;52.666;5.202;2022-08-20T06:55:37;22.10;72.40
66057;DHT22;52842;52.666;5.202;2022-08-20T06:58:06;22.10;72.10
66057;DHT22;52842;52.666;5.202;2022-08-20T07:00:33;22.10;71.70
66057;DHT22;52842;52.666;5.202;2022-08-20T07:03:00;22.00;71.30
66057;DHT22;52842;52.666;5.202;2022-08-20T07:05:28;22.00;70.90
66057;DHT22;52842;52.666;5.202;2022-08-20T07:07:55;22.00;70.80
66057;DHT22;52842;52.666;5.202;2022-08-20T07:10:24;22.00;70.70
66057;DHT22;52842;52.666;5.202;2022-08-20T07:12:51;22.00;70.70
66057;DHT22;52842;52.666;5.202;2022-08-20T07:15:18;22.00;70.80
66057;DHT22;52842;52.666;5.202;2022-08-20T07:17:47;22.00;70.80
66057;DHT22;52842;52.666;5.202;2022-08-20T07:20:14;22.00;70.70
66057;DHT22;52842;52.666;5.202;2022-08-20T07:22:41;22.00;70.10
66057;DHT22;52842;52.666;5.202;2022-08-20T07:25:08;22.00;69.50
66057;DHT22;52842;52.666;5.202;2022-08-20T07:27:37;22.00;68.80
66057;DHT22;52842;52.666;5.202;2022-08-20T07:30:05;21.90;68.00
66057;DHT22;52842;52.666;5.202;2022-08-20T07:32:49;21.90;67.30
66057;DHT22;52842;52.666;5.202;2022-08-20T07:35:16;21.80;66.30
66057;DHT22;52842;52.666;5.202;2022-08-20T07:37:44;21.80;65.80
66057;DHT22;52842;52.666;5.202;2022-08-20T07:40:14;21.80;65.50
66057;DHT22;52842;52.666;5.202;2022-08-20T07:42:42;21.80;65.20
66057;DHT22;52842;52.666;5.202;2022-08-20T07:45:10;21.80;65.00
66057;DHT22;52842;52.666;5.202;2022-08-20T07:47:36;21.70;64.70
66057;DHT22;52842;52.666;5.202;2022-08-20T07:50:04;21.70;64.50
66057;DHT22;52842;52.666;5.202;2022-08-20T07:52:31;21.70;64.40
66057;DHT22;52842;52.666;5.202;2022-08-20T07:54:59;21.70;64.40
66057;DHT22;52842;52.666;5.202;2022-08-20T07:57:26;21.70;64.40
66057;DHT22;52842;52.666;5.202;2022-08-20T07:59:54;21.70;64.10
66057;DHT22;52842;52.666;5.202;2022-08-20T08:02:24;21.60;63.90
66057;DHT22;52842;52.666;5.202;2022-08-20T08:04:51;21.70;63.80
66057;DHT22;52842;52.666;5.202;2022-08-20T08:07:18;21.60;63.60
66057;DHT22;52842;52.666;5.202;2022-08-20T08:09:45;21.70;63.60
66057;DHT22;52842;52.666;5.202;2022-08-20T08:12:12;21.60;63.70
66057;DHT22;52842;52.666;5.202;2022-08-20T08:14:40;21.60;63.90
66057;DHT22;52842;52.666;5.202;2022-08-20T08:17:09;21.60;64.20
66057;DHT22;52842;52.666;5.202;2022-08-20T08:19:38;21.60;64.30
66057;DHT22;52842;52.666;5.202;2022-08-20T08:22:06;21.70;64.30
66057;DHT22;52842;52.666;5.202;2022-08-20T08:24:35;21.60;63.70
66057;DHT22;52842;52.666;5.202;2022-08-20T08:27:02;21.60;63.30
66057;DHT22;52842;52.666;5.202;2022-08-20T08:29:29;21.60;63.30
66057;DHT22;52842;52.666;5.202;2022-08-20T08:31:56;21.60;63.30
66057;DHT22;52842;52.666;5.202;2022-08-20T08:34:24;21.60;62.70
66057;DHT22;52842;52.666;5.202;2022-08-20T08:36:50;21.60;62.20
66057;DHT22;52842;52.666;5.202;2022-08-20T08:39:17;21.60;61.80
66057;DHT22;52842;52.666;5.202;2022-08-20T08:41:45;21.60;61.60
66057;DHT22;52842;52.666;5.202;2022-08-20T08:44:14;21.60;61.60
66057;DHT22;52842;52.666;5.202;2022-08-20T08:46:45;21.60;61.60
66057;DHT22;52842;52.666;5.202;2022-08-20T08:49:15;21.60;61.30
66057;DHT22;52842;52.666;5.202;2022-08-20T08:51:45;21.60;61.40
66057;DHT22;52842;52.666;5.202;2022-08-20T08:54:15;21.60;61.80
66057;DHT22;52842;52.666;5.202;2022-08-20T08:56:44;21.60;61.90
66057;DHT22;52842;52.666;5.202;2022-08-20T08:59:11;21.60;62.00
66057;DHT22;52842;52.666;5.202;2022-08-20T09:01:39;21.60;62.20
66057;DHT22;52842;52.666;5.202;2022-08-20T09:04:07;21.70;62.20
66057;DHT22;52842;52.666;5.202;2022-08-20T09:06:34;21.60;61.70
66057;DHT22;52842;52.666;5.202;2022-08-20T09:09:03;21.60;61.40
66057;DHT22;52842;52.666;5.202;2022-08-20T09:11:30;21.70;61.20
66057;DHT22;52842;52.666;5.202;2022-08-20T09:13:57;21.70;60.60
66057;DHT22;52842;52.666;5.202;2022-08-20T09:16:24;21.60;59.80
66057;DHT22;52842;52.666;5.202;2022-08-20T09:18:51;21.70;59.50
66057;DHT22;52842;52.666;5.202;2022-08-20T09:21:18;21.60;59.30
66057;DHT22;52842;52.666;5.202;2022-08-20T09:23:44;21.60;59.40
66057;DHT22;52842;52.666;5.202;2022-08-20T09:26:12;21.60;59.80
66057;DHT22;52842;52.666;5.202;2022-08-20T09:28:39;21.60;60.10
66057;DHT22;52842;52.666;5.202;2022-08-20T09:31:06;21.60;60.40
66057;DHT22;52842;52.666;5.202;2022-08-20T09:33:32;21.70;60.60
66057;DHT22;52842;52.666;5.202;2022-08-20T09:35:59;21.70;60.50
66057;DHT22;52842;52.666;5.202;2022-08-20T09:38:26;21.70;60.40
66057;DHT22;52842;52.666;5.202;2022-08-20T09:40:52;21.70;60.80
66057;DHT22;52842;52.666;5.202;2022-08-20T09:43:20;21.70;61.30
66057;DHT22;52842;52.666;5.202;2022-08-20T09:45:47;21.70;61.50
66057;DHT22;52842;52.666;5.202;2022-08-20T09:48:14;21.70;61.20
66057;DHT22;52842;52.666;5.202;2022-08-20T09:50:41;21.80;61.60
66057;DHT22;52842;52.666;5.202;2022-08-20T09:53:09;21.80;61.90
66057;DHT22;52842;52.666;5.202;2022-08-20T09:55:36;21.80;62.00
66057;DHT22;52842;52.666;5.202;2022-08-20T09:58:05;21.80;62.00
66057;DHT22;52842;52.666;5.202;2022-08-20T10:00:34;21.90;61.80
66057;DHT22;52842;52.666;5.202;2022-08-20T10:03:01;21.90;61.30
66057;DHT22;52842;52.666;5.202;2022-08-20T10:05:27;21.90;61.00
66057;DHT22;52842;52.666;5.202;2022-08-20T10:07:54;21.90;60.80
66057;DHT22;52842;52.666;5.202;2022-08-20T10:10:21;21.90;60.20
66057;DHT22;52842;52.666;5.202;2022-08-20T10:12:47;21.90;60.00
66057;DHT22;52842;52.666;5.202;2022-08-20T10:15:14;21.90;59.90
66057;DHT22;52842;52.666;5.202;2022-08-20T10:17:42;21.90;59.80
66057;DHT22;52842;52.666;5.202;2022-08-20T10:20:09;21.90;59.70
66057;DHT22;52842;52.666;5.202;2022-08-20T10:22:37;21.90;59.60
66057;DHT22;52842;52.666;5.202;2022-08-20T10:25:03;21.90;59.50
66057;DHT22;52842;52.666;5.202;2022-08-20T10:27:30;21.90;59.40
66057;DHT22;52842;52.666;5.202;2022-08-20T10:29:57;21.90;59.10
66057;DHT22;52842;52.666;5.202;2022-08-20T10:32:24;21.90;59.10
66057;DHT22;52842;52.666;5.202;2022-08-20T10:34:52;21.90;59.20
66057;DHT22;52842;52.666;5.202;2022-08-20T10:37:20;21.90;59.40
66057;DHT22;52842;52.666;5.202;2022-08-20T10:39:47;21.90;59.30
66057;DHT22;52842;52.666;5.202;2022-08-20T10:42:14;21.90;59.10
66057;DHT22;52842;52.666;5.202;2022-08-20T10:44:41;21.90;59.10
66057;DHT22;52842;52.666;5.202;2022-08-20T10:47:15;22.00;59.00
66057;DHT22;52842;52.666;5.202;2022-08-20T10:49:42;22.00;58.90
66057;DHT22;52842;52.666;5.202;2022-08-20T10:52:10;22.00;59.10
66057;DHT22;52842;52.666;5.202;2022-08-20T10:54:37;22.00;59.00
66057;DHT22;52842;52.666;5.202;2022-08-20T10:57:05;22.00;58.70
66057;DHT22;52842;52.666;5.202;2022-08-20T10:59:36;22.00;58.60
66057;DHT22;52842;52.666;5.202;2022-08-20T11:02:03;22.00;58.60
66057;DHT22;52842;52.666;5.202;2022-08-20T11:04:29;22.00;58.50
66057;DHT22;52842;52.666;5.202;2022-08-20T11:06:56;22.00;58.50
66057;DHT22;52842;52.666;5.202;2022-08-20T11:09:24;22.10;58.80
66057;DHT22;52842;52.666;5.202;2022-08-20T11:11:51;22.10;59.20
66057;DHT22;52842;52.666;5.202;2022-08-20T11:14:17;22.10;59.20
66057;DHT22;52842;52.666;5.202;2022-08-20T11:16:44;22.10;59.40
66057;DHT22;52842;52.666;5.202;2022-08-20T11:19:11;22.10;59.40
66057;DHT22;52842;52.666;5.202;2022-08-20T11:21:37;22.20;59.30
66057;DHT22;52842;52.666;5.202;2022-08-20T11:24:04;22.20;59.30
66057;DHT22;52842;52.666;5.202;2022-08-20T11:26:32;22.20;59.50
66057;DHT22;52842;52.666;5.202;2022-08-20T11:28:59;22.20;59.60
66057;DHT22;52842;52.666;5.202;2022-08-20T11:31:25;22.30;59.50
66057;DHT22;52842;52.666;5.202;2022-08-20T11:33:52;22.30;59.50
66057;DHT22;52842;52.666;5.202;2022-08-20T11:36:19;22.30;59.50
66057;DHT22;52842;52.666;5.202;2022-08-20T11:38:45;22.30;59.70
66057;DHT22;52842;52.666;5.202;2022-08-20T11:41:12;22.40;59.90
66057;DHT22;52842;52.666;5.202;2022-08-20T11:43:40;22.40;59.90
66057;DHT22;52842;52.666;5.202;2022-08-20T11:46:07;22.40;59.70
66057;DHT22;52842;52.666;5.202;2022-08-20T11:48:33;22.40;60.10
66057;DHT22;52842;52.666;5.202;2022-08-20T11:51:00;22.40;59.40
66057;DHT22;52842;52.666;5.202;2022-08-20T11:53:26;22.50;59.60
66057;DHT22;52842;52.666;5.202;2022-08-20T11:55:53;22.50;59.90
66057;DHT22;52842;52.666;5.202;2022-08-20T11:58:20;22.50;59.80
66057;DHT22;52842;52.666;5.202;2022-08-20T12:00:48;22.50;59.50
66057;DHT22;52842;52.666;5.202;2022-08-20T12:03:14;22.50;59.30
66057;DHT22;52842;52.666;5.202;2022-08-20T12:05:42;22.50;59.70
66057;DHT22;52842;52.666;5.202;2022-08-20T12:08:09;22.60;59.70
66057;DHT22;52842;52.666;5.202;2022-08-20T12:10:37;22.60;59.80
66057;DHT22;52842;52.666;5.202;2022-08-20T12:13:04;22.60;60.10
66057;DHT22;52842;52.666;5.202;2022-08-20T12:15:31;22.60;60.30
66057;DHT22;52842;52.666;5.202;2022-08-20T12:17:59;22.60;60.10
66057;DHT22;52842;52.666;5.202;2022-08-20T12:20:26;22.70;59.50
66057;DHT22;52842;52.666;5.202;2022-08-20T12:22:52;22.60;58.90
66057;DHT22;52842;52.666;5.202;2022-08-20T12:25:19;22.70;58.90
66057;DHT22;52842;52.666;5.202;2022-08-20T12:27:46;22.70;58.90
66057;DHT22;52842;52.666;5.202;2022-08-20T12:30:14;22.70;58.90
66057;DHT22;52842;52.666;5.202;2022-08-20T12:32:41;22.70;58.90
66057;DHT22;52842;52.666;5.202;2022-08-20T12:35:11;22.70;58.50
66057;DHT22;52842;52.666;5.202;2022-08-20T12:37:38;22.70;58.30
66057;DHT22;52842;52.666;5.202;2022-08-20T12:40:06;22.70;58.20
66057;DHT22;52842;52.666;5.202;2022-08-20T12:42:33;22.70;58.30
66057;DHT22;52842;52.666;5.202;2022-08-20T12:45:00;22.70;58.40
66057;DHT22;52842;52.666;5.202;2022-08-20T12:47:27;22.70;58.40
66057;DHT22;52842;52.666;5.202;2022-08-20T12:49:55;22.70;58.50
66057;DHT22;52842;52.666;5.202;2022-08-20T12:52:24;22.70;58.80
66057;DHT22;52842;52.666;5.202;2022-08-20T12:54:51;22.80;59.40
66057;DHT22;52842;52.666;5.202;2022-08-20T12:57:22;22.80;59.70
66057;DHT22;52842;52.666;5.202;2022-08-20T12:59:49;22.80;59.90
66057;DHT22;52842;52.666;5.202;2022-08-20T13:02:16;22.80;60.00
66057;DHT22;52842;52.666;5.202;2022-08-20T13:04:43;22.80;60.00
66057;DHT22;52842;52.666;5.202;2022-08-20T13:07:10;22.90;59.80
66057;DHT22;52842;52.666;5.202;2022-08-20T13:09:39;22.90;59.70
66057;DHT22;52842;52.666;5.202;2022-08-20T13:12:06;22.90;59.60
66057;DHT22;52842;52.666;5.202;2022-08-20T13:14:33;22.90;59.40
66057;DHT22;52842;52.666;5.202;2022-08-20T13:17:00;22.90;59.30
66057;DHT22;52842;52.666;5.202;2022-08-20T13:19:27;22.90;59.40
66057;DHT22;52842;52.666;5.202;2022-08-20T13:21:54;22.90;59.20
66057;DHT22;52842;52.666;5.202;2022-08-20T13:24:21;22.90;59.10
66057;DHT22;52842;52.666;5.202;2022-08-20T13:26:49;22.90;59.30
66057;DHT22;52842;52.666;5.202;2022-08-20T13:29:16;22.90;59.20
66057;DHT22;52842;52.666;5.202;2022-08-20T13:31:44;23.00;59.50
66057;DHT22;52842;52.666;5.202;2022-08-20T13:34:11;23.00;60.10
66057;DHT22;52842;52.666;5.202;2022-08-20T13:36:37;23.00;60.80
66057;DHT22;52842;52.666;5.202;2022-08-20T13:39:05;23.00;61.10
66057;DHT22;52842;52.666;5.202;2022-08-20T13:41:32;23.10;61.40
66057;DHT22;52842;52.666;5.202;2022-08-20T13:44:01;23.10;61.80
66057;DHT22;52842;52.666;5.202;2022-08-20T13:46:28;23.10;62.00
66057;DHT22;52842;52.666;5.202;2022-08-20T13:48:54;23.10;62.20
66057;DHT22;52842;52.666;5.202;2022-08-20T13:51:21;23.10;62.50
66057;DHT22;52842;52.666;5.202;2022-08-20T13:53:48;23.10;62.60
66057;DHT22;52842;52.666;5.202;2022-08-20T13:56:14;23.10;62.50
66057;DHT22;52842;52.666;5.202;2022-08-20T13:58:41;23.10;62.80
66057;DHT22;52842;52.666;5.202;2022-08-20T14:01:09;23.10;63.40
66057;DHT22;52842;52.666;5.202;2022-08-20T14:03:36;23.20;62.00
66057;DHT22;52842;52.666;5.202;2022-08-20T14:06:02;23.10;61.10
66057;DHT22;52842;52.666;5.202;2022-08-20T14:08:29;23.10;60.80
66057;DHT22;52842;52.666;5.202;2022-08-20T14:10:56;23.20;61.20
66057;DHT22;52842;52.666;5.202;2022-08-20T14:13:24;23.20;61.70
66057;DHT22;52842;52.666;5.202;2022-08-20T14:15:51;23.20;62.20
66057;DHT22;52842;52.666;5.202;2022-08-20T14:18:19;23.20;61.80
66057;DHT22;52842;52.666;5.202;2022-08-20T14:20:46;23.20;61.40
66057;DHT22;52842;52.666;5.202;2022-08-20T14:23:12;23.20;61.00
66057;DHT22;52842;52.666;5.202;2022-08-20T14:25:40;23.20;61.20
66057;DHT22;52842;52.666;5.202;2022-08-20T14:28:09;23.20;61.30
66057;DHT22;52842;52.666;5.202;2022-08-20T14:30:36;23.20;61.50
66057;DHT22;52842;52.666;5.202;2022-08-20T14:33:03;23.20;62.20
66057;DHT22;52842;52.666;5.202;2022-08-20T14:35:31;23.30;62.50
66057;DHT22;52842;52.666;5.202;2022-08-20T14:37:58;23.30;62.80
66057;DHT22;52842;52.666;5.202;2022-08-20T14:40:25;23.30;62.90
66057;DHT22;52842;52.666;5.202;2022-08-20T14:42:52;23.30;63.20
66057;DHT22;52842;52.666;5.202;2022-08-20T14:45:20;23.30;63.50
66057;DHT22;52842;52.666;5.202;2022-08-20T14:47:49;23.30;63.20
66057;DHT22;52842;52.666;5.202;2022-08-20T14:50:17;23.30;63.20
66057;DHT22;52842;52.666;5.202;2022-08-20T14:52:46;23.30;63.80
66057;DHT22;52842;52.666;5.202;2022-08-20T14:55:13;23.30;63.10
66057;DHT22;52842;52.666;5.202;2022-08-20T14:57:40;23.30;62.80
66057;DHT22;52842;52.666;5.202;2022-08-20T15:00:10;23.30;62.70
66057;DHT22;52842;52.666;5.202;2022-08-20T15:02:37;23.30;62.80
66057;DHT22;52842;52.666;5.202;2022-08-20T15:05:04;23.30;62.80
66057;DHT22;52842;52.666;5.202;2022-08-20T15:07:32;23.30;62.80
66057;DHT22;52842;52.666;5.202;2022-08-20T15:10:01;23.30;62.80
66057;DHT22;52842;52.666;5.202;2022-08-20T15:12:30;23.30;62.90
66057;DHT22;52842;52.666;5.202;2022-08-20T15:14:59;23.30;63.00
66057;DHT22;52842;52.666;5.202;2022-08-20T15:17:27;23.30;63.10
66057;DHT22;52842;52.666;5.202;2022-08-20T15:19:55;23.30;63.10
66057;DHT22;52842;52.666;5.202;2022-08-20T15:22:22;23.30;63.20
66057;DHT22;52842;52.666;5.202;2022-08-20T15:24:49;23.30;63.20
66057;DHT22;52842;52.666;5.202;2022-08-20T15:27:18;23.30;63.10
66057;DHT22;52842;52.666;5.202;2022-08-20T15:29:46;23.30;63.10
66057;DHT22;52842;52.666;5.202;2022-08-20T15:32:13;23.30;63.10
66057;DHT22;52842;52.666;5.202;2022-08-20T15:34:40;23.30;62.60